Annapolis, MD (21401)

3:53 PM EDT on June 30, 2015 (GMT -0400)
Arnold (Indian Hills/Glen Eden) | | Change Station
CLOSE
Current Station
Personal Weather Station
Location: Arnold, MD
Elevation: 66 ft
Nearby Weather Stations

Elev 66 ft 39.02 °N, 76.49 °W | Updated 2 seconds ago

Partly Cloudy
Partly Cloudy
85.4 °F
Feels Like 95 °F
N
2.0
Wind Variable Wind from WNW
Gusts 5.0 mph

Today
High -- | Low -- °F
--% Chance of Precip.
Yesterday
High -- | Low -- °F
Precip. -- in
5:43 AM 8:35 PM
Waxing Gibbous, 98% visible
Pressure 29.85 in
Visibility 10.0 miles
Clouds Few 5000 ft
Scattered Clouds 6500 ft
Scattered Clouds 10000 ft
Heat Index 95 °F
Dew Point 76 °F
Humidity 74%
Rainfall in
Snow Depth Not available.
UV 8 out of 12
Pollen 4.30 out of 12
Air Quality Not available.
Flu Activity Sporadic
METAR KNAK 301854Z AUTO 17013KT 10SM FEW050 SCT065 SCT100 27/21 A2984 RMK AO2 SLP107 T02720211

More Conditions Fewer Conditions

Pressure 29.85 in
Visibility 10.0 miles
Clouds Few 5000 ft
Scattered Clouds 6500 ft
Scattered Clouds 10000 ft
Heat Index 95 °F
Dew Point 76 °F
Humidity 74%
Rainfall in
Snow Depth Not available.
UV 8 out of 12
Pollen 4.30 out of 12
Air Quality Not available.
Flu Activity Sporadic
METAR KNAK 301854Z AUTO 17013KT 10SM FEW050 SCT065 SCT100 27/21 A2984 RMK AO2 SLP107 T02720211

More Conditions Fewer Conditions

10-Day Weather Forecast

×

Almanac

Astronomy

Jun. 30, 2015 Rise Set
Actual Time
Civil Twilight
Nautical Twilight
Astronomical Twilight
Moon
Length of Visible Light
Length of Day
Tomorrow will be .
, % of the Moon is Illuminated

Today's Extremes

State Highs State Lows

Community

WunderPhotos

Upload Photos

1,834,067 photos uploaded!

WunderBlogs® & News

Nearby

Air Quality

  Air Quality AQ Index Pollutant
Not available.

Snow Depth

Station Depth Elevation

Earthquake Activity

City Distance Mag. Time & Date
Minimum magnitude displayed is 2.5.

Coastal Water Temperatures

Place Temperature

Stations

Nearby Weather Stations

Station Location Temp. Windchill Dew Point Humidity Wind Precip. Elev Updated Type
                   
Severe Thunderstorm Watch
Statement as of 3:43 PM EDT on June 30, 2015

Severe Thunderstorm Watch 372 remains in effect until 800 PM EDT

MD
. Maryland counties included are

Anne Arundel Baltimore Caroline
Carroll Cecil Frederick
Harford Howard Kent
Queen Anne's Talbot Washington




Maryland independent cities included are

Baltimore City